sensor_id;sensor_type;location;lat;lon;timestamp;temperature;humidity
56300;DHT22;42209;6.376;-10.782;2023-01-23T00:01:37;23.40;67.30
56300;DHT22;42209;6.376;-10.782;2023-01-23T00:04:06;23.60;68.90
56300;DHT22;42209;6.376;-10.782;2023-01-23T00:06:34;23.80;67.20
56300;DHT22;42209;6.376;-10.782;2023-01-23T00:09:02;23.50;61.40
56300;DHT22;42209;6.376;-10.782;2023-01-23T00:11:31;23.20;59.40
56300;DHT22;42209;6.376;-10.782;2023-01-23T00:14:01;23.10;58.00
56300;DHT22;42209;6.376;-10.782;2023-01-23T00:16:31;23.10;64.30
56300;DHT22;42209;6.376;-10.782;2023-01-23T00:19:00;23.30;67.10
56300;DHT22;42209;6.376;-10.782;2023-01-23T00:21:28;23.50;68.80
56300;DHT22;42209;6.376;-10.782;2023-01-23T00:23:58;23.70;70.40
56300;DHT22;42209;6.376;-10.782;2023-01-23T00:26:29;23.70;65.60
56300;DHT22;42209;6.376;-10.782;2023-01-23T00:28:58;23.50;61.10
56300;DHT22;42209;6.376;-10.782;2023-01-23T00:31:32;23.20;59.10
56300;DHT22;42209;6.376;-10.782;2023-01-23T00:34:03;23.10;57.80
56300;DHT22;42209;6.376;-10.782;2023-01-23T00:36:37;23.00;56.70
56300;DHT22;42209;6.376;-10.782;2023-01-23T00:39:16;22.90;61.80
56300;DHT22;42209;6.376;-10.782;2023-01-23T00:41:46;23.20;65.30
56300;DHT22;42209;6.376;-10.782;2023-01-23T00:44:16;23.40;67.50
56300;DHT22;42209;6.376;-10.782;2023-01-23T00:46:45;23.60;69.00
56300;DHT22;42209;6.376;-10.782;2023-01-23T00:49:13;23.80;66.70
56300;DHT22;42209;6.376;-10.782;2023-01-23T00:51:44;23.50;61.40
56300;DHT22;42209;6.376;-10.782;2023-01-23T00:54:12;23.30;59.50
56300;DHT22;42209;6.376;-10.782;2023-01-23T00:56:40;23.10;58.20
56300;DHT22;42209;6.376;-10.782;2023-01-23T00:59:08;23.10;64.00
56300;DHT22;42209;6.376;-10.782;2023-01-23T01:01:37;23.30;66.90
56300;DHT22;42209;6.376;-10.782;2023-01-23T01:04:05;23.50;68.70
56300;DHT22;42209;6.376;-10.782;2023-01-23T01:06:35;23.60;69.80
56300;DHT22;42209;6.376;-10.782;2023-01-23T01:09:03;23.70;68.10
56300;DHT22;42209;6.376;-10.782;2023-01-23T01:11:32;23.50;62.20
56300;DHT22;42209;6.376;-10.782;2023-01-23T01:14:00;23.20;59.70
56300;DHT22;42209;6.376;-10.782;2023-01-23T01:16:29;23.10;61.50
56300;DHT22;42209;6.376;-10.782;2023-01-23T01:18:58;23.20;66.60
56300;DHT22;42209;6.376;-10.782;2023-01-23T01:21:26;23.40;68.70
56300;DHT22;42209;6.376;-10.782;2023-01-23T01:23:55;23.60;70.20
56300;DHT22;42209;6.376;-10.782;2023-01-23T01:26:26;23.70;68.60
56300;DHT22;42209;6.376;-10.782;2023-01-23T01:28:55;23.50;62.30
56300;DHT22;42209;6.376;-10.782;2023-01-23T01:31:23;23.30;60.40
56300;DHT22;42209;6.376;-10.782;2023-01-23T01:33:53;23.00;58.60
56300;DHT22;42209;6.376;-10.782;2023-01-23T01:36:23;23.00;63.80
56300;DHT22;42209;6.376;-10.782;2023-01-23T01:38:51;23.20;67.30
56300;DHT22;42209;6.376;-10.782;2023-01-23T01:41:19;23.40;69.30
56300;DHT22;42209;6.376;-10.782;2023-01-23T01:43:48;23.60;70.50
56300;DHT22;42209;6.376;-10.782;2023-01-23T01:54:40;23.00;58.10
56300;DHT22;42209;6.376;-10.782;2023-01-23T01:57:20;23.10;64.80
56300;DHT22;42209;6.376;-10.782;2023-01-23T01:59:53;23.30;67.70
56300;DHT22;42209;6.376;-10.782;2023-01-23T02:02:29;23.50;69.40
56300;DHT22;42209;6.376;-10.782;2023-01-23T02:05:02;23.70;71.60
56300;DHT22;42209;6.376;-10.782;2023-01-23T02:08:12;23.70;66.10
56300;DHT22;42209;6.376;-10.782;2023-01-23T02:10:44;23.40;61.40
56300;DHT22;42209;6.376;-10.782;2023-01-23T02:13:25;23.10;59.20
56300;DHT22;42209;6.376;-10.782;2023-01-23T02:15:55;23.00;64.20
56300;DHT22;42209;6.376;-10.782;2023-01-23T02:18:25;23.20;67.30
56300;DHT22;42209;6.376;-10.782;2023-01-23T02:20:56;23.40;69.30
56300;DHT22;42209;6.376;-10.782;2023-01-23T02:23:38;23.60;70.80
56300;DHT22;42209;6.376;-10.782;2023-01-23T02:26:33;23.70;67.30
56300;DHT22;42209;6.376;-10.782;2023-01-23T02:29:03;23.40;62.00
56300;DHT22;42209;6.376;-10.782;2023-01-23T02:31:40;23.20;60.00
56300;DHT22;42209;6.376;-10.782;2023-01-23T02:34:11;23.00;62.90
56300;DHT22;42209;6.376;-10.782;2023-01-23T02:36:41;23.20;67.30
56300;DHT22;42209;6.376;-10.782;2023-01-23T02:39:15;23.40;69.30
56300;DHT22;42209;6.376;-10.782;2023-01-23T02:41:50;23.60;70.70
56300;DHT22;42209;6.376;-10.782;2023-01-23T02:44:24;23.80;71.70
56300;DHT22;42209;6.376;-10.782;2023-01-23T02:47:00;23.60;64.20
56300;DHT22;42209;6.376;-10.782;2023-01-23T02:49:30;23.30;61.30
56300;DHT22;42209;6.376;-10.782;2023-01-23T02:51:58;23.00;59.50
56300;DHT22;42209;6.376;-10.782;2023-01-23T02:54:27;22.90;60.70
56300;DHT22;42209;6.376;-10.782;2023-01-23T02:56:56;23.00;66.00
56300;DHT22;42209;6.376;-10.782;2023-01-23T02:59:24;23.30;68.30
56300;DHT22;42209;6.376;-10.782;2023-01-23T03:01:53;23.50;70.00
56300;DHT22;42209;6.376;-10.782;2023-01-23T03:04:25;23.60;71.10
56300;DHT22;42209;6.376;-10.782;2023-01-23T03:06:53;23.70;67.00
56300;DHT22;42209;6.376;-10.782;2023-01-23T03:09:21;23.40;62.00
56300;DHT22;42209;6.376;-10.782;2023-01-23T03:11:51;23.10;60.40
56300;DHT22;42209;6.376;-10.782;2023-01-23T03:14:22;23.00;63.70
56300;DHT22;42209;6.376;-10.782;2023-01-23T03:16:52;23.10;67.90
56300;DHT22;42209;6.376;-10.782;2023-01-23T03:19:24;23.40;69.90
56300;DHT22;42209;6.376;-10.782;2023-01-23T03:21:53;23.60;71.40
56300;DHT22;42209;6.376;-10.782;2023-01-23T03:24:21;23.70;72.50
56300;DHT22;42209;6.376;-10.782;2023-01-23T03:26:50;23.70;66.50
56300;DHT22;42209;6.376;-10.782;2023-01-23T03:29:24;23.40;62.70
56300;DHT22;42209;6.376;-10.782;2023-01-23T03:31:52;23.10;60.40
56300;DHT22;42209;6.376;-10.782;2023-01-23T03:34:21;23.00;59.30
56300;DHT22;42209;6.376;-10.782;2023-01-23T03:36:49;23.00;65.70
56300;DHT22;42209;6.376;-10.782;2023-01-23T03:39:17;23.20;68.20
56300;DHT22;42209;6.376;-10.782;2023-01-23T03:41:46;23.40;69.90
56300;DHT22;42209;6.376;-10.782;2023-01-23T03:44:18;23.60;71.20
56300;DHT22;42209;6.376;-10.782;2023-01-23T03:46:49;23.70;68.10
56300;DHT22;42209;6.376;-10.782;2023-01-23T03:49:18;23.40;62.60
56300;DHT22;42209;6.376;-10.782;2023-01-23T03:51:53;23.20;60.50
56300;DHT22;42209;6.376;-10.782;2023-01-23T03:54:22;23.00;63.70
56300;DHT22;42209;6.376;-10.782;2023-01-23T03:56:51;23.20;67.50
56300;DHT22;42209;6.376;-10.782;2023-01-23T03:59:48;23.30;69.60
56300;DHT22;42209;6.376;-10.782;2023-01-23T04:02:19;23.60;71.50
56300;DHT22;42209;6.376;-10.782;2023-01-23T04:04:47;23.70;72.10
56300;DHT22;42209;6.376;-10.782;2023-01-23T04:07:16;23.50;64.40
56300;DHT22;42209;6.376;-10.782;2023-01-23T04:13:13;23.10;60.50
56300;DHT22;42209;6.376;-10.782;2023-01-23T04:15:41;23.30;65.20
56300;DHT22;42209;6.376;-10.782;2023-01-23T04:18:09;23.40;67.80
56300;DHT22;42209;6.376;-10.782;2023-01-23T04:20:38;23.60;69.60
56300;DHT22;42209;6.376;-10.782;2023-01-23T04:23:06;23.70;71.00
56300;DHT22;42209;6.376;-10.782;2023-01-23T04:25:36;23.60;65.20
56300;DHT22;42209;6.376;-10.782;2023-01-23T04:28:11;23.30;61.30
56300;DHT22;42209;6.376;-10.782;2023-01-23T04:30:40;23.00;60.10
56300;DHT22;42209;6.376;-10.782;2023-01-23T04:33:16;23.10;66.60
56300;DHT22;42209;6.376;-10.782;2023-01-23T04:36:05;23.20;69.10
56300;DHT22;42209;6.376;-10.782;2023-01-23T04:38:34;23.50;71.10
56300;DHT22;42209;6.376;-10.782;2023-01-23T04:41:20;23.60;72.10
56300;DHT22;42209;6.376;-10.782;2023-01-23T04:43:56;23.80;71.40
56300;DHT22;42209;6.376;-10.782;2023-01-23T04:46:25;23.50;64.00
56300;DHT22;42209;6.376;-10.782;2023-01-23T04:48:58;23.20;61.80
56300;DHT22;42209;6.376;-10.782;2023-01-23T04:51:27;23.00;63.40
56300;DHT22;42209;6.376;-10.782;2023-01-23T04:53:55;23.10;68.30
56300;DHT22;42209;6.376;-10.782;2023-01-23T04:56:23;23.40;70.20
56300;DHT22;42209;6.376;-10.782;2023-01-23T04:58:52;23.50;71.50
56300;DHT22;42209;6.376;-10.782;2023-01-23T05:01:22;23.60;72.70
56300;DHT22;42209;6.376;-10.782;2023-01-23T05:03:56;23.70;69.00
56300;DHT22;42209;6.376;-10.782;2023-01-23T05:06:25;23.40;63.60
56300;DHT22;42209;6.376;-10.782;2023-01-23T05:08:55;23.10;61.50
56300;DHT22;42209;6.376;-10.782;2023-01-23T05:11:40;23.10;67.70
56300;DHT22;42209;6.376;-10.782;2023-01-23T05:14:10;23.30;70.10
56300;DHT22;42209;6.376;-10.782;2023-01-23T05:16:41;23.50;71.60
56300;DHT22;42209;6.376;-10.782;2023-01-23T05:19:15;23.60;73.20
56300;DHT22;42209;6.376;-10.782;2023-01-23T05:21:44;23.70;72.80
56300;DHT22;42209;6.376;-10.782;2023-01-23T05:24:16;23.60;65.50
56300;DHT22;42209;6.376;-10.782;2023-01-23T05:26:44;23.20;62.70
56300;DHT22;42209;6.376;-10.782;2023-01-23T05:29:13;23.00;64.60
56300;DHT22;42209;6.376;-10.782;2023-01-23T05:31:51;23.20;68.90
56300;DHT22;42209;6.376;-10.782;2023-01-23T05:34:38;23.40;70.80
56300;DHT22;42209;6.376;-10.782;2023-01-23T05:37:16;23.60;72.60
56300;DHT22;42209;6.376;-10.782;2023-01-23T05:39:48;23.70;73.90
56300;DHT22;42209;6.376;-10.782;2023-01-23T05:42:17;23.70;70.30
56300;DHT22;42209;6.376;-10.782;2023-01-23T05:45:18;23.50;64.60
56300;DHT22;42209;6.376;-10.782;2023-01-23T05:47:46;23.10;61.70
56300;DHT22;42209;6.376;-10.782;2023-01-23T05:50:18;23.00;66.60
56300;DHT22;42209;6.376;-10.782;2023-01-23T05:52:47;23.20;69.90
56300;DHT22;42209;6.376;-10.782;2023-01-23T05:55:15;23.40;72.20
56300;DHT22;42209;6.376;-10.782;2023-01-23T05:57:47;23.60;73.60
56300;DHT22;42209;6.376;-10.782;2023-01-23T06:00:50;23.70;74.30
56300;DHT22;42209;6.376;-10.782;2023-01-23T06:03:38;23.60;67.60
56300;DHT22;42209;6.376;-10.782;2023-01-23T06:06:34;23.20;63.70
56300;DHT22;42209;6.376;-10.782;2023-01-23T06:09:03;23.00;68.60
56300;DHT22;42209;6.376;-10.782;2023-01-23T06:11:32;23.30;71.20
56300;DHT22;42209;6.376;-10.782;2023-01-23T06:14:01;23.40;72.60
56300;DHT22;42209;6.376;-10.782;2023-01-23T06:16:29;23.60;74.10
56300;DHT22;42209;6.376;-10.782;2023-01-23T06:18:58;23.80;74.80
56300;DHT22;42209;6.376;-10.782;2023-01-23T06:21:29;23.70;68.30
56300;DHT22;42209;6.376;-10.782;2023-01-23T06:23:58;23.40;64.40
56300;DHT22;42209;6.376;-10.782;2023-01-23T06:26:27;23.10;62.40
56300;DHT22;42209;6.376;-10.782;2023-01-23T06:28:56;23.10;68.10
56300;DHT22;42209;6.376;-10.782;2023-01-23T06:31:24;23.30;70.30
56300;DHT22;42209;6.376;-10.782;2023-01-23T06:33:57;23.40;72.00
56300;DHT22;42209;6.376;-10.782;2023-01-23T06:36:31;23.60;73.50
56300;DHT22;42209;6.376;-10.782;2023-01-23T06:39:00;23.80;74.70
56300;DHT22;42209;6.376;-10.782;2023-01-23T06:41:35;23.80;71.50
56300;DHT22;42209;6.376;-10.782;2023-01-23T06:44:05;23.40;65.60
56300;DHT22;42209;6.376;-10.782;2023-01-23T06:46:35;23.10;62.90
56300;DHT22;42209;6.376;-10.782;2023-01-23T06:49:04;23.10;68.60
56300;DHT22;42209;6.376;-10.782;2023-01-23T06:51:36;23.30;71.00
56300;DHT22;42209;6.376;-10.782;2023-01-23T06:54:07;23.40;72.50
56300;DHT22;42209;6.376;-10.782;2023-01-23T06:56:37;23.60;74.00
56300;DHT22;42209;6.376;-10.782;2023-01-23T06:59:08;23.70;74.60
56300;DHT22;42209;6.376;-10.782;2023-01-23T07:01:36;23.60;68.40
56300;DHT22;42209;6.376;-10.782;2023-01-23T07:04:19;23.30;64.50
56300;DHT22;42209;6.376;-10.782;2023-01-23T07:06:50;23.10;67.50
56300;DHT22;42209;6.376;-10.782;2023-01-23T07:09:19;23.20;71.30
56300;DHT22;42209;6.376;-10.782;2023-01-23T07:12:01;23.40;73.00
56300;DHT22;42209;6.376;-10.782;2023-01-23T07:14:31;23.60;74.50
56300;DHT22;42209;6.376;-10.782;2023-01-23T07:17:00;23.70;75.40
56300;DHT22;42209;6.376;-10.782;2023-01-23T07:19:29;23.70;70.60
56300;DHT22;42209;6.376;-10.782;2023-01-23T07:21:59;23.40;66.80
56300;DHT22;42209;6.376;-10.782;2023-01-23T07:24:27;23.10;64.50
56300;DHT22;42209;6.376;-10.782;2023-01-23T07:26:55;23.00;69.70
56300;DHT22;42209;6.376;-10.782;2023-01-23T07:29:24;23.20;72.80
56300;DHT22;42209;6.376;-10.782;2023-01-23T07:31:52;23.40;74.60
56300;DHT22;42209;6.376;-10.782;2023-01-23T07:34:21;23.60;76.20
56300;DHT22;42209;6.376;-10.782;2023-01-23T07:36:49;23.70;73.20
56300;DHT22;42209;6.376;-10.782;2023-01-23T07:39:17;23.50;68.20
56300;DHT22;42209;6.376;-10.782;2023-01-23T07:41:47;23.20;65.70
56300;DHT22;42209;6.376;-10.782;2023-01-23T07:44:17;23.10;65.40
56300;DHT22;42209;6.376;-10.782;2023-01-23T07:46:47;23.20;71.60
56300;DHT22;42209;6.376;-10.782;2023-01-23T07:49:16;23.30;74.20
56300;DHT22;42209;6.376;-10.782;2023-01-23T07:51:44;23.60;76.10
56300;DHT22;42209;6.376;-10.782;2023-01-23T07:54:12;23.70;77.10
56300;DHT22;42209;6.376;-10.782;2023-01-23T07:56:40;23.70;72.70
56300;DHT22;42209;6.376;-10.782;2023-01-23T07:59:11;23.40;67.70
56300;DHT22;42209;6.376;-10.782;2023-01-23T08:01:39;23.20;65.40
56300;DHT22;42209;6.376;-10.782;2023-01-23T08:04:08;22.90;65.20
56300;DHT22;42209;6.376;-10.782;2023-01-23T08:06:36;23.00;71.30
56300;DHT22;42209;6.376;-10.782;2023-01-23T08:09:05;23.20;73.60
56300;DHT22;42209;6.376;-10.782;2023-01-23T08:11:33;23.40;75.30
56300;DHT22;42209;6.376;-10.782;2023-01-23T08:14:01;23.60;76.60
56300;DHT22;42209;6.376;-10.782;2023-01-23T08:16:30;23.70;78.20
56300;DHT22;42209;6.376;-10.782;2023-01-23T08:18:58;23.60;71.40
56300;DHT22;42209;6.376;-10.782;2023-01-23T08:21:27;23.30;67.60
56300;DHT22;42209;6.376;-10.782;2023-01-23T08:23:55;23.10;66.00
56300;DHT22;42209;6.376;-10.782;2023-01-23T08:26:23;23.10;72.00
56300;DHT22;42209;6.376;-10.782;2023-01-23T08:28:52;23.30;76.00
56300;DHT22;42209;6.376;-10.782;2023-01-23T08:31:20;23.50;78.70
56300;DHT22;42209;6.376;-10.782;2023-01-23T08:33:48;23.70;79.90
56300;DHT22;42209;6.376;-10.782;2023-01-23T08:36:17;23.70;74.80
56300;DHT22;42209;6.376;-10.782;2023-01-23T08:38:45;23.40;71.40
56300;DHT22;42209;6.376;-10.782;2023-01-23T08:41:13;23.20;69.70
56300;DHT22;42209;6.376;-10.782;2023-01-23T08:43:42;23.00;67.40
56300;DHT22;42209;6.376;-10.782;2023-01-23T08:46:10;22.90;66.30
56300;DHT22;42209;6.376;-10.782;2023-01-23T08:48:39;22.80;65.80
56300;DHT22;42209;6.376;-10.782;2023-01-23T08:51:11;22.80;65.00
56300;DHT22;42209;6.376;-10.782;2023-01-23T08:53:40;22.70;63.80
56300;DHT22;42209;6.376;-10.782;2023-01-23T08:56:17;22.70;70.00
56300;DHT22;42209;6.376;-10.782;2023-01-23T08:58:45;23.00;73.50
56300;DHT22;42209;6.376;-10.782;2023-01-23T09:01:17;23.30;75.50
56300;DHT22;42209;6.376;-10.782;2023-01-23T09:03:46;23.40;77.80
56300;DHT22;42209;6.376;-10.782;2023-01-23T09:06:18;23.60;77.20
56300;DHT22;42209;6.376;-10.782;2023-01-23T09:08:46;23.40;71.60
56300;DHT22;42209;6.376;-10.782;2023-01-23T09:11:16;23.20;69.20
56300;DHT22;42209;6.376;-10.782;2023-01-23T09:13:45;23.00;67.90
56300;DHT22;42209;6.376;-10.782;2023-01-23T09:16:14;22.90;66.50
56300;DHT22;42209;6.376;-10.782;2023-01-23T09:18:42;22.80;65.40
56300;DHT22;42209;6.376;-10.782;2023-01-23T09:21:13;22.70;64.70
56300;DHT22;42209;6.376;-10.782;2023-01-23T09:23:43;22.70;66.00
56300;DHT22;42209;6.376;-10.782;2023-01-23T09:26:12;22.90;72.50
56300;DHT22;42209;6.376;-10.782;2023-01-23T09:28:41;23.10;75.40
56300;DHT22;42209;6.376;-10.782;2023-01-23T09:31:12;23.30;78.00
56300;DHT22;42209;6.376;-10.782;2023-01-23T09:33:40;23.50;78.90
56300;DHT22;42209;6.376;-10.782;2023-01-23T09:36:09;23.60;75.80
56300;DHT22;42209;6.376;-10.782;2023-01-23T09:38:37;23.40;72.50
56300;DHT22;42209;6.376;-10.782;2023-01-23T09:41:14;23.20;70.70
56300;DHT22;42209;6.376;-10.782;2023-01-23T09:51:59;22.90;72.20
56300;DHT22;42209;6.376;-10.782;2023-01-23T09:57:53;23.30;76.20
56300;DHT22;42209;6.376;-10.782;2023-01-23T10:00:30;23.50;77.00
56300;DHT22;42209;6.376;-10.782;2023-01-23T10:03:12;23.60;78.90
56300;DHT22;42209;6.376;-10.782;2023-01-23T10:17:11;23.30;76.00
56300;DHT22;42209;6.376;-10.782;2023-01-23T10:22:32;23.70;78.60
56300;DHT22;42209;6.376;-10.782;2023-01-23T10:25:14;23.60;73.40
56300;DHT22;42209;6.376;-10.782;2023-01-23T10:27:46;23.20;68.40
56300;DHT22;42209;6.376;-10.782;2023-01-23T10:30:29;23.00;70.40
56300;DHT22;42209;6.376;-10.782;2023-01-23T10:33:23;23.20;73.80
56300;DHT22;42209;6.376;-10.782;2023-01-23T10:36:00;23.30;75.60
56300;DHT22;42209;6.376;-10.782;2023-01-23T10:41:12;23.70;78.70
56300;DHT22;42209;6.376;-10.782;2023-01-23T10:43:45;23.60;71.90
56300;DHT22;42209;6.376;-10.782;2023-01-23T10:46:17;23.30;68.30
56300;DHT22;42209;6.376;-10.782;2023-01-23T10:48:47;23.00;68.80
56300;DHT22;42209;6.376;-10.782;2023-01-23T10:54:12;23.30;74.80
56300;DHT22;42209;6.376;-10.782;2023-01-23T10:57:24;23.50;76.10
56300;DHT22;42209;6.376;-10.782;2023-01-23T11:02:53;23.70;73.70
56300;DHT22;42209;6.376;-10.782;2023-01-23T11:08:35;23.10;68.70
56300;DHT22;42209;6.376;-10.782;2023-01-23T11:13:43;23.40;75.20
56300;DHT22;42209;6.376;-10.782;2023-01-23T11:16:14;23.60;77.20
56300;DHT22;42209;6.376;-10.782;2023-01-23T11:21:37;23.70;72.30
56300;DHT22;42209;6.376;-10.782;2023-01-23T11:24:20;23.30;68.10
56300;DHT22;42209;6.376;-10.782;2023-01-23T11:27:22;23.10;70.70
56300;DHT22;42209;6.376;-10.782;2023-01-23T11:32:57;23.50;75.50
56300;DHT22;42209;6.376;-10.782;2023-01-23T11:38:54;23.80;73.70
56300;DHT22;42209;6.376;-10.782;2023-01-23T11:41:27;23.30;68.30
56300;DHT22;42209;6.376;-10.782;2023-01-23T11:43:56;23.10;69.50
56300;DHT22;42209;6.376;-10.782;2023-01-23T11:47:00;23.20;73.20
56300;DHT22;42209;6.376;-10.782;2023-01-23T11:49:50;23.40;75.60
56300;DHT22;42209;6.376;-10.782;2023-01-23T11:58:08;23.50;69.80
56300;DHT22;42209;6.376;-10.782;2023-01-23T12:14:39;23.70;72.80
56300;DHT22;42209;6.376;-10.782;2023-01-23T12:25:41;23.80;70.00
56300;DHT22;42209;6.376;-10.782;2023-01-23T12:40:03;23.20;70.80
56300;DHT22;42209;6.376;-10.782;2023-01-23T12:45:25;23.60;75.50
56300;DHT22;42209;6.376;-10.782;2023-01-23T12:50:50;23.40;68.70
56300;DHT22;42209;6.376;-10.782;2023-01-23T12:53:21;23.20;65.20
56300;DHT22;42209;6.376;-10.782;2023-01-23T12:58:25;23.30;73.10
56300;DHT22;42209;6.376;-10.782;2023-01-23T13:04:08;23.60;76.70
56300;DHT22;42209;6.376;-10.782;2023-01-23T13:17:50;23.50;72.80
56300;DHT22;42209;6.376;-10.782;2023-01-23T13:20:33;23.70;74.70
56300;DHT22;42209;6.376;-10.782;2023-01-23T13:23:24;23.80;69.90
56300;DHT22;42209;6.376;-10.782;2023-01-23T13:28:50;23.20;62.40
56300;DHT22;42209;6.376;-10.782;2023-01-23T13:31:48;23.10;67.40
56300;DHT22;42209;6.376;-10.782;2023-01-23T13:36:48;23.60;73.10
56300;DHT22;42209;6.376;-10.782;2023-01-23T13:39:20;23.80;74.10
56300;DHT22;42209;6.376;-10.782;2023-01-23T13:45:16;23.30;63.80
56300;DHT22;42209;6.376;-10.782;2023-01-23T13:48:14;23.10;61.70
56300;DHT22;42209;6.376;-10.782;2023-01-23T13:50:53;23.00;62.80
56300;DHT22;42209;6.376;-10.782;2023-01-23T13:53:46;23.20;68.80
56300;DHT22;42209;6.376;-10.782;2023-01-23T13:56:29;23.40;71.40
56300;DHT22;42209;6.376;-10.782;2023-01-23T13:59:24;23.70;73.80
56300;DHT22;42209;6.376;-10.782;2023-01-23T14:02:27;23.60;67.20
56300;DHT22;42209;6.376;-10.782;2023-01-23T14:05:25;23.30;63.60
56300;DHT22;42209;6.376;-10.782;2023-01-23T14:08:16;23.10;61.20
56300;DHT22;42209;6.376;-10.782;2023-01-23T14:10:58;23.00;64.20
56300;DHT22;42209;6.376;-10.782;2023-01-23T14:13:46;23.20;68.70
56300;DHT22;42209;6.376;-10.782;2023-01-23T14:16:28;23.50;71.30
56300;DHT22;42209;6.376;-10.782;2023-01-23T14:19:37;23.70;73.20
56300;DHT22;42209;6.376;-10.782;2023-01-23T14:22:05;23.70;67.20
56300;DHT22;42209;6.376;-10.782;2023-01-23T14:24:50;23.40;63.60
56300;DHT22;42209;6.376;-10.782;2023-01-23T14:27:32;23.20;61.40
56300;DHT22;42209;6.376;-10.782;2023-01-23T14:30:21;23.00;59.70
56300;DHT22;42209;6.376;-10.782;2023-01-23T14:32:49;23.00;65.50
56300;DHT22;42209;6.376;-10.782;2023-01-23T14:35:25;23.20;68.70
56300;DHT22;42209;6.376;-10.782;2023-01-23T14:38:03;23.50;71.10
56300;DHT22;42209;6.376;-10.782;2023-01-23T14:40:33;23.70;73.00
56300;DHT22;42209;6.376;-10.782;2023-01-23T14:43:21;23.60;66.00
56300;DHT22;42209;6.376;-10.782;2023-01-23T14:46:15;23.30;62.80
56300;DHT22;42209;6.376;-10.782;2023-01-23T14:48:50;23.10;60.60
56300;DHT22;42209;6.376;-10.782;2023-01-23T14:51:23;23.00;60.90
56300;DHT22;42209;6.376;-10.782;2023-01-23T14:54:04;23.20;67.10
56300;DHT22;42209;6.376;-10.782;2023-01-23T14:56:38;23.40;69.90
56300;DHT22;42209;6.376;-10.782;2023-01-23T15:01:53;23.60;64.60
56300;DHT22;42209;6.376;-10.782;2023-01-23T15:04:23;23.40;61.90
56300;DHT22;42209;6.376;-10.782;2023-01-23T15:06:55;23.20;60.10
56300;DHT22;42209;6.376;-10.782;2023-01-23T15:09:30;23.10;59.10
56300;DHT22;42209;6.376;-10.782;2023-01-23T15:12:05;23.00;58.40
56300;DHT22;42209;6.376;-10.782;2023-01-23T15:14:38;23.00;57.60
56300;DHT22;42209;6.376;-10.782;2023-01-23T15:17:13;22.90;56.80
56300;DHT22;42209;6.376;-10.782;2023-01-23T15:19:52;22.90;56.60
56300;DHT22;42209;6.376;-10.782;2023-01-23T15:22:27;22.90;56.30
56300;DHT22;42209;6.376;-10.782;2023-01-23T15:24:56;22.90;55.60
56300;DHT22;42209;6.376;-10.782;2023-01-23T15:27:44;22.90;55.60
56300;DHT22;42209;6.376;-10.782;2023-01-23T15:30:28;22.80;54.90
56300;DHT22;42209;6.376;-10.782;2023-01-23T15:32:57;22.80;61.70
56300;DHT22;42209;6.376;-10.782;2023-01-23T15:35:26;23.10;68.50
56300;DHT22;42209;6.376;-10.782;2023-01-23T15:37:58;23.40;71.10
56300;DHT22;42209;6.376;-10.782;2023-01-23T15:40:27;23.50;73.70
56300;DHT22;42209;6.376;-10.782;2023-01-23T15:43:05;23.70;73.20
56300;DHT22;42209;6.376;-10.782;2023-01-23T15:45:37;23.40;66.20
56300;DHT22;42209;6.376;-10.782;2023-01-23T15:48:05;23.10;64.80
56300;DHT22;42209;6.376;-10.782;2023-01-23T15:50:33;23.10;69.40
56300;DHT22;42209;6.376;-10.782;2023-01-23T15:53:02;23.30;71.90
56300;DHT22;42209;6.376;-10.782;2023-01-23T15:55:30;23.60;73.80
56300;DHT22;42209;6.376;-10.782;2023-01-23T15:57:58;23.80;76.00
56300;DHT22;42209;6.376;-10.782;2023-01-23T16:00:29;23.70;72.00
56300;DHT22;42209;6.376;-10.782;2023-01-23T16:02:58;23.50;66.40
56300;DHT22;42209;6.376;-10.782;2023-01-23T16:05:34;23.20;67.80
56300;DHT22;42209;6.376;-10.782;2023-01-23T16:08:05;23.30;71.20
56300;DHT22;42209;6.376;-10.782;2023-01-23T16:10:39;23.60;73.90
56300;DHT22;42209;6.376;-10.782;2023-01-23T16:13:11;23.70;76.00
56300;DHT22;42209;6.376;-10.782;2023-01-23T16:15:40;23.80;71.50
56300;DHT22;42209;6.376;-10.782;2023-01-23T16:18:08;23.40;66.00
56300;DHT22;42209;6.376;-10.782;2023-01-23T16:20:40;23.20;67.00
56300;DHT22;42209;6.376;-10.782;2023-01-23T16:23:17;23.40;71.00
56300;DHT22;42209;6.376;-10.782;2023-01-23T16:25:45;23.60;73.50
56300;DHT22;42209;6.376;-10.782;2023-01-23T16:28:17;23.70;75.50
56300;DHT22;42209;6.376;-10.782;2023-01-23T16:30:47;23.90;74.90
56300;DHT22;42209;6.376;-10.782;2023-01-23T16:33:15;23.80;72.50
56300;DHT22;42209;6.376;-10.782;2023-01-23T16:35:44;23.60;70.90
56300;DHT22;42209;6.376;-10.782;2023-01-23T16:38:22;23.50;70.20
56300;DHT22;42209;6.376;-10.782;2023-01-23T16:40:52;23.40;69.10
56300;DHT22;42209;6.376;-10.782;2023-01-23T16:43:21;23.40;68.50
56300;DHT22;42209;6.376;-10.782;2023-01-23T16:45:50;23.30;68.20
56300;DHT22;42209;6.376;-10.782;2023-01-23T16:48:32;23.30;67.90
56300;DHT22;42209;6.376;-10.782;2023-01-23T16:53:48;23.20;67.90
56300;DHT22;42209;6.376;-10.782;2023-01-23T16:56:28;23.20;67.50
56300;DHT22;42209;6.376;-10.782;2023-01-23T16:59:02;23.20;67.40
56300;DHT22;42209;6.376;-10.782;2023-01-23T17:01:38;23.10;67.70
56300;DHT22;42209;6.376;-10.782;2023-01-23T17:04:06;23.10;67.70
56300;DHT22;42209;6.376;-10.782;2023-01-23T17:06:35;23.10;67.30
56300;DHT22;42209;6.376;-10.782;2023-01-23T17:09:03;23.10;66.90
56300;DHT22;42209;6.376;-10.782;2023-01-23T17:11:32;23.00;66.50
56300;DHT22;42209;6.376;-10.782;2023-01-23T17:14:05;23.00;66.20
56300;DHT22;42209;6.376;-10.782;2023-01-23T17:16:34;23.00;66.00
56300;DHT22;42209;6.376;-10.782;2023-01-23T17:19:09;22.90;64.10
56300;DHT22;42209;6.376;-10.782;2023-01-23T17:21:40;22.90;62.60
56300;DHT22;42209;6.376;-10.782;2023-01-23T17:24:15;22.90;61.90
56300;DHT22;42209;6.376;-10.782;2023-01-23T17:26:44;22.90;60.50
56300;DHT22;42209;6.376;-10.782;2023-01-23T17:29:12;22.80;60.00
56300;DHT22;42209;6.376;-10.782;2023-01-23T17:31:41;22.90;65.60
56300;DHT22;42209;6.376;-10.782;2023-01-23T17:34:19;23.20;70.80
56300;DHT22;42209;6.376;-10.782;2023-01-23T17:36:49;23.50;73.60
56300;DHT22;42209;6.376;-10.782;2023-01-23T17:39:18;23.70;70.90
56300;DHT22;42209;6.376;-10.782;2023-01-23T17:41:47;23.50;67.10
56300;DHT22;42209;6.376;-10.782;2023-01-23T17:44:16;23.30;64.80
56300;DHT22;42209;6.376;-10.782;2023-01-23T17:46:45;23.20;63.00
56300;DHT22;42209;6.376;-10.782;2023-01-23T17:49:32;23.00;61.50
56300;DHT22;42209;6.376;-10.782;2023-01-23T17:52:00;23.20;69.50
56300;DHT22;42209;6.376;-10.782;2023-01-23T17:54:29;23.40;72.50
56300;DHT22;42209;6.376;-10.782;2023-01-23T17:56:57;23.70;74.20
56300;DHT22;42209;6.376;-10.782;2023-01-23T17:59:26;23.80;70.80
56300;DHT22;42209;6.376;-10.782;2023-01-23T18:01:56;23.60;67.30
56300;DHT22;42209;6.376;-10.782;2023-01-23T18:06:53;23.30;63.80
56300;DHT22;42209;6.376;-10.782;2023-01-23T18:09:21;23.60;68.50
56300;DHT22;42209;6.376;-10.782;2023-01-23T18:11:49;23.70;72.60